Time;durP1;ratioP1;P1;durP2;ratioP2;P2;SDS_P1;SDS_P2;PMS_P1;PMS_P2;Temp;Humidity;BMP_temperature;BMP_pressure;BME280_temperature;BME280_humidity;BME280_pressure;Samples;Min_cycle;Max_cycle;Signal;HPM_P1;HPM_P2
2023/12/06 03:43:09;;;;;;;13.53;12.83;;;4.10;99.90;;;;;;5032230;28;20298;-77
2023/12/06 03:45:36;;;;;;;13.40;12.70;;;4.10;99.90;;;;;;5035284;28;20199;-78
2023/12/06 03:48:03;;;;;;;13.60;12.90;;;4.10;99.90;;;;;;5023986;28;20216;-78
2023/12/06 03:50:30;;;;;;;13.20;12.50;;;4.10;99.90;;;;;;5033068;28;20692;-78
2023/12/06 03:53:00;;;;;;;13.40;12.70;;;4.10;99.90;;;;;;5033409;28;20232;-81
2023/12/06 03:55:27;;;;;;;13.20;12.50;;;4.10;99.90;;;;;;5032386;28;20209;-80
2023/12/06 04:11:32;;;;;;;12.70;12.10;;;4.10;99.90;;;;;;6033476;22;20593;-77
2023/12/06 04:14:00;;;;;;;12.90;12.20;;;4.00;99.90;;;;;;5004893;28;20274;-77
2023/12/06 04:16:34;;;;;;;12.63;12.03;;;4.10;99.90;;;;;;5022919;28;20207;-79
2023/12/06 04:19:20;;;;;;;12.33;11.73;;;4.00;99.90;;;;;;5020331;28;20261;-78
2023/12/06 04:33:11;;;;;;;13.00;12.30;;;4.00;99.90;;;;;;4999590;28;20258;-80
2023/12/06 04:35:42;;;;;;;12.50;11.90;;;4.00;99.90;;;;;;5029172;28;20202;-81
2023/12/06 04:38:31;;;;;;;12.50;11.90;;;4.00;99.90;;;;;;5055372;28;20215;-80
2023/12/06 04:51:52;;;;;;;13.60;12.90;;;4.00;99.90;;;;;;5071152;28;20187;-79
2023/12/06 04:54:19;;;;;;;13.03;12.37;;;4.00;99.90;;;;;;5066451;28;20194;-80
2023/12/06 04:56:46;;;;;;;12.60;12.00;;;4.10;99.90;;;;;;5055030;28;20281;-81
2023/12/06 04:59:13;;;;;;;12.77;12.07;;;4.00;99.90;;;;;;5053866;28;20219;-78
2023/12/06 05:01:39;;;;;;;13.50;12.80;;;4.10;99.90;;;;;;5072010;28;20222;-77
2023/12/06 05:04:08;;;;;;;12.50;11.90;;;4.10;99.90;;;;;;5054000;28;20260;-77
2023/12/06 05:06:34;;;;;;;12.67;11.97;;;4.10;99.90;;;;;;5054423;28;20249;-77
2023/12/06 05:09:01;;;;;;;12.47;11.87;;;4.10;99.90;;;;;;5053797;28;20218;-77
2023/12/06 05:11:28;;;;;;;13.00;12.30;;;4.10;99.90;;;;;;5054332;28;20212;-77
2023/12/06 05:13:55;;;;;;;13.37;12.67;;;4.10;99.90;;;;;;5071993;28;20740;-77
2023/12/06 05:16:22;;;;;;;13.40;12.70;;;4.10;99.90;;;;;;5053884;28;20242;-78
2023/12/06 05:18:48;;;;;;;12.90;12.20;;;4.10;99.90;;;;;;5053644;28;20222;-78
2023/12/06 05:21:17;;;;;;;13.10;12.40;;;4.10;99.90;;;;;;5054168;28;20200;-77
2023/12/06 05:23:44;;;;;;;13.20;12.50;;;4.10;99.90;;;;;;5054234;28;20252;-77
2023/12/06 05:26:10;;;;;;;13.40;12.70;;;4.10;99.90;;;;;;5087350;28;20194;-77
2023/12/06 05:28:37;;;;;;;13.20;12.50;;;4.10;99.90;;;;;;5057966;28;20221;-77
2023/12/06 05:31:04;;;;;;;12.73;12.07;;;4.10;99.90;;;;;;5057558;28;20223;-77
2023/12/06 05:33:31;;;;;;;12.60;11.90;;;4.10;99.90;;;;;;5075154;28;20201;-77
2023/12/06 05:35:58;;;;;;;13.00;12.30;;;4.10;99.90;;;;;;5075711;28;20198;-78
2023/12/06 05:38:26;;;;;;;13.10;12.40;;;4.10;99.90;;;;;;5057123;28;20223;-78
2023/12/06 05:40:53;;;;;;;13.50;12.80;;;4.10;99.90;;;;;;5058052;28;20233;-78
2023/12/06 05:43:20;;;;;;;13.03;12.33;;;4.10;99.90;;;;;;5076405;28;20195;-76
2023/12/06 05:45:47;;;;;;;13.30;12.50;;;4.10;99.90;;;;;;5057548;28;20195;-77
2023/12/06 05:48:14;;;;;;;13.27;12.57;;;4.10;99.90;;;;;;5071975;28;20235;-78
2023/12/06 05:50:40;;;;;;;13.60;12.80;;;4.10;99.90;;;;;;5057704;28;20281;-78
2023/12/06 05:53:07;;;;;;;13.40;12.70;;;4.10;99.90;;;;;;5075295;28;20199;-77
2023/12/06 05:55:34;;;;;;;13.70;13.00;;;4.10;99.90;;;;;;5057676;28;20248;-78
2023/12/06 05:58:02;;;;;;;14.03;13.33;;;4.10;99.90;;;;;;5075008;28;20302;-78
2023/12/06 06:00:30;;;;;;;14.40;13.70;;;4.10;99.90;;;;;;5075023;28;20249;-77
2023/12/06 06:02:58;;;;;;;14.40;13.70;;;4.10;99.90;;;;;;5075680;28;20197;-77
2023/12/06 06:05:25;;;;;;;14.20;13.40;;;4.10;99.90;;;;;;5057113;28;20631;-77
2023/12/06 06:07:52;;;;;;;13.50;12.77;;;4.00;99.90;;;;;;5074564;28;20224;-77
2023/12/06 06:10:19;;;;;;;13.80;13.10;;;4.10;99.90;;;;;;5075082;28;20216;-78
2023/12/06 06:12:47;;;;;;;13.87;13.17;;;4.00;99.90;;;;;;5056978;28;20199;-78
2023/12/06 06:15:14;;;;;;;14.07;13.37;;;4.10;99.90;;;;;;5057215;28;20286;-78
2023/12/06 06:17:40;;;;;;;13.47;12.77;;;4.10;99.90;;;;;;5057762;28;20203;-77
2023/12/06 06:20:10;;;;;;;13.40;12.60;;;4.00;99.90;;;;;;5067025;28;20205;-78
2023/12/06 06:22:37;;;;;;;13.83;13.03;;;4.00;99.90;;;;;;5076014;28;20238;-78
2023/12/06 06:25:04;;;;;;;14.30;13.47;;;4.00;99.90;;;;;;5075426;28;20268;-78
2023/12/06 06:27:31;;;;;;;14.30;13.50;;;4.00;99.90;;;;;;5057608;28;20582;-79
2023/12/06 06:29:59;;;;;;;14.77;13.97;;;3.90;99.90;;;;;;5076637;28;20219;-77
2023/12/06 06:32:26;;;;;;;14.50;13.70;;;3.90;99.90;;;;;;5076132;28;20223;-78
2023/12/06 06:35:13;;;;;;;14.80;14.00;;;3.90;99.90;;;;;;5057106;28;20203;-82
2023/12/06 06:41:03;;;;;;;14.97;14.13;;;3.90;99.90;;;;;;5069224;28;20389;-79
2023/12/06 06:43:29;;;;;;;15.30;14.40;;;3.80;99.90;;;;;;5059119;28;20298;-81
2023/12/06 06:45:57;;;;;;;15.23;14.23;;;3.80;99.90;;;;;;5077594;28;20209;-82
2023/12/06 06:48:24;;;;;;;15.17;14.27;;;3.80;99.90;;;;;;5075034;28;20242;-81
2023/12/06 06:51:02;;;;;;;15.10;14.20;;;3.70;99.90;;;;;;5064851;28;20258;-80
2023/12/06 06:53:44;;;;;;;14.50;13.70;;;3.80;99.90;;;;;;5052121;28;20256;-82
2023/12/06 06:56:28;;;;;;;14.67;13.87;;;3.70;99.90;;;;;;5075953;28;20199;-81
2023/12/06 06:59:12;;;;;;;13.67;12.97;;;3.70;99.90;;;;;;5082215;28;20222;-81
2023/12/06 07:01:48;;;;;;;14.00;13.20;;;3.80;99.90;;;;;;5063164;28;20194;-81
2023/12/06 07:09:09;;;;;;;13.23;12.53;;;3.80;99.90;;;;;;5080076;28;20229;-81
2023/12/06 07:17:22;;;;;;;13.50;12.80;;;3.90;99.90;;;;;;5081824;28;20326;-82
2023/12/06 07:36:40;;;;;;;14.97;14.07;;;4.00;99.90;;;;;;4978820;28;20201;-81
2023/12/06 07:48:25;;;;;;;14.03;13.23;;;4.20;99.90;;;;;;4974192;28;20263;-81
2023/12/06 08:06:30;;;;;;;13.10;12.40;;;4.40;99.90;;;;;;4865909;29;20216;-82
2023/12/06 08:12:57;;;;;;;13.00;12.30;;;4.50;99.90;;;;;;4990322;28;20203;-86
2023/12/06 08:15:36;;;;;;;13.00;12.30;;;4.50;99.90;;;;;;5019784;28;20297;-87
2023/12/06 08:18:03;;;;;;;13.23;12.43;;;4.50;99.90;;;;;;5065819;28;20355;-87
2023/12/06 08:20:30;;;;;;;13.40;12.60;;;4.60;99.90;;;;;;5058282;28;20197;-87
2023/12/06 08:26:45;;;;;;;13.60;12.80;;;4.60;99.90;;;;;;5074673;28;20217;-84
2023/12/06 08:29:38;;;;;;;13.30;12.60;;;4.80;99.90;;;;;;5047090;28;20698;-81
2023/12/06 08:32:39;;;;;;;13.47;12.50;;;5.00;99.90;;;;;;5055668;28;20276;-81
2023/12/06 08:35:06;;;;;;;13.53;12.83;;;4.90;99.90;;;;;;5070041;28;20198;-82
2023/12/06 08:37:36;;;;;;;13.53;12.83;;;4.90;99.90;;;;;;5055153;28;20201;-82
2023/12/06 08:40:04;;;;;;;13.80;13.00;;;4.90;99.90;;;;;;5078131;28;20219;-81
2023/12/06 08:42:34;;;;;;;13.90;13.03;;;4.90;99.90;;;;;;5073369;28;20203;-81
2023/12/06 08:45:01;;;;;;;13.80;13.00;;;4.90;99.90;;;;;;5055231;28;20195;-82
2023/12/06 08:47:35;;;;;;;14.23;13.43;;;4.90;99.90;;;;;;5060267;28;20207;-82
2023/12/06 08:50:07;;;;;;;14.00;13.20;;;5.00;99.90;;;;;;5055814;28;20744;-82
2023/12/06 08:52:45;;;;;;;14.10;13.30;;;5.00;99.90;;;;;;5057712;28;20198;-82
2023/12/06 08:55:54;;;;;;;13.40;12.60;;;5.10;99.90;;;;;;5061397;28;20201;-86
2023/12/06 09:54:41;;;;;;;14.17;13.30;;;5.60;99.90;;;;;;4997822;28;20282;-84
2023/12/06 09:57:49;;;;;;;14.20;13.40;;;5.60;99.90;;;;;;4990483;28;20200;-82
2023/12/06 10:08:20;;;;;;;14.13;13.23;;;5.50;99.90;;;;;;4934761;29;20217;-81
2023/12/06 10:10:48;;;;;;;13.77;12.97;;;5.50;99.90;;;;;;4938314;28;20652;-86
2023/12/06 10:13:15;;;;;;;14.10;13.20;;;5.50;99.90;;;;;;5011165;28;20210;-85
2023/12/06 10:19:21;;;;;;;14.57;13.67;;;5.70;99.90;;;;;;5019843;28;20329;-83
2023/12/06 10:22:26;;;;;;;;;;;;;;;;;;;;;
2023/12/06 10:25:08;;;;;;;16.27;15.17;;;5.70;99.90;;;;;;5013648;28;20194;-83
2023/12/06 10:27:37;;;;;;;16.53;15.33;;;5.60;99.90;;;;;;5037190;28;20221;-82
2023/12/06 10:30:05;;;;;;;16.03;14.97;;;5.60;99.90;;;;;;5032139;28;20237;-82
2023/12/06 10:32:32;;;;;;;15.63;14.63;;;5.60;99.90;;;;;;5010850;28;20195;-82
2023/12/06 10:35:00;;;;;;;16.80;15.50;;;5.60;99.90;;;;;;5015869;28;20213;-86
2023/12/06 10:37:28;;;;;;;16.40;15.10;;;5.60;99.90;;;;;;5030814;28;20265;-86
2023/12/06 10:40:00;;;;;;;16.83;15.53;;;5.60;99.90;;;;;;5023481;28;20228;-85
2023/12/06 10:42:33;;;;;;;18.23;16.93;;;5.60;99.90;;;;;;5017331;28;20208;-83
2023/12/06 10:45:03;;;;;;;17.53;16.13;;;5.60;99.90;;;;;;5015481;28;20203;-82
2023/12/06 10:47:30;;;;;;;18.13;16.63;;;5.70;99.90;;;;;;5034882;28;20195;-79
2023/12/06 10:49:59;;;;;;;17.90;16.70;;;5.70;99.90;;;;;;5026229;28;20221;-83
2023/12/06 10:52:27;;;;;;;17.80;16.47;;;5.60;99.90;;;;;;5017374;28;20232;-83
2023/12/06 10:54:55;;;;;;;17.37;16.07;;;5.70;99.90;;;;;;5031434;28;20662;-83
2023/12/06 10:57:22;;;;;;;16.53;15.43;;;5.70;99.90;;;;;;5025374;28;20552;-83
2023/12/06 10:59:50;;;;;;;17.07;15.97;;;5.70;99.90;;;;;;5027870;28;20226;-84
2023/12/06 11:02:22;;;;;;;17.13;16.03;;;5.60;99.90;;;;;;5031338;28;20199;-83
2023/12/06 11:04:53;;;;;;;17.63;16.43;;;5.60;99.90;;;;;;5021850;28;20198;-83
2023/12/06 11:07:34;;;;;;;17.33;16.17;;;5.60;99.90;;;;;;5029148;28;20593;-84
2023/12/06 11:10:10;;;;;;;16.70;15.70;;;5.60;99.90;;;;;;5016105;28;20222;-84
2023/12/06 11:12:49;;;;;;;16.70;15.60;;;5.60;99.90;;;;;;5039097;28;20255;-84
2023/12/06 11:15:32;;;;;;;16.90;15.80;;;5.60;99.90;;;;;;5050793;28;20198;-82
2023/12/06 11:18:09;;;;;;;17.50;16.30;;;5.60;99.90;;;;;;5040317;28;20226;-83
2023/12/06 11:20:38;;;;;;;17.03;15.93;;;5.50;99.90;;;;;;5034421;28;20205;-83
2023/12/06 11:23:05;;;;;;;17.10;15.93;;;5.50;99.90;;;;;;5032281;28;20194;-84
2023/12/06 11:25:35;;;;;;;17.37;16.17;;;5.40;99.90;;;;;;5031410;28;20222;-82
2023/12/06 11:28:10;;;;;;;16.90;15.80;;;5.40;99.90;;;;;;5033184;28;20289;-84
2023/12/06 11:30:47;;;;;;;16.33;15.23;;;5.50;99.90;;;;;;5034323;28;20249;-84
2023/12/06 11:33:15;;;;;;;16.03;14.93;;;5.60;99.90;;;;;;5020718;28;20207;-84
2023/12/06 11:35:45;;;;;;;17.10;16.00;;;5.60;99.90;;;;;;5038640;28;20211;-83
2023/12/06 11:38:12;;;;;;;16.63;15.53;;;5.60;99.90;;;;;;5016718;28;20218;-83
2023/12/06 11:40:51;;;;;;;16.37;15.37;;;5.60;99.90;;;;;;5020914;28;20293;-84
2023/12/06 11:43:19;;;;;;;16.23;15.23;;;5.60;99.90;;;;;;5032993;28;20198;-83
2023/12/06 11:45:51;;;;;;;16.83;15.63;;;5.60;99.90;;;;;;5022618;28;20194;-83
2023/12/06 11:48:20;;;;;;;17.47;16.33;;;5.60;99.90;;;;;;5029254;28;20255;-84
2023/12/06 11:50:52;;;;;;;17.13;15.93;;;5.60;99.90;;;;;;5022695;28;20210;-84
2023/12/06 11:53:22;;;;;;;16.10;15.07;;;5.60;99.90;;;;;;5016371;28;20234;-83
2023/12/06 11:55:49;;;;;;;16.90;15.80;;;5.50;99.90;;;;;;5032264;28;20206;-84
2023/12/06 11:58:18;;;;;;;17.70;16.40;;;5.50;99.90;;;;;;5034101;28;20304;-84
2023/12/06 12:00:46;;;;;;;17.13;15.93;;;5.50;99.90;;;;;;5039556;28;20197;-84
2023/12/06 12:03:14;;;;;;;15.87;14.77;;;5.50;99.90;;;;;;5013575;28;20222;-83
2023/12/06 12:05:46;;;;;;;16.53;15.33;;;5.40;99.90;;;;;;5018231;28;20201;-83
2023/12/06 12:08:14;;;;;;;15.80;14.80;;;5.40;99.90;;;;;;5034653;28;20305;-83
2023/12/06 12:10:42;;;;;;;15.97;14.87;;;5.40;99.90;;;;;;5030508;28;20657;-84
2023/12/06 12:13:17;;;;;;;15.23;14.23;;;5.40;99.90;;;;;;5033476;28;20203;-84
2023/12/06 12:15:51;;;;;;;16.37;15.27;;;5.40;99.90;;;;;;5037819;28;20208;-84
2023/12/06 12:18:18;;;;;;;16.60;15.60;;;5.30;99.90;;;;;;5017260;28;20285;-83
2023/12/06 12:20:46;;;;;;;16.70;15.60;;;5.30;99.90;;;;;;5037568;28;20218;-82
2023/12/06 12:23:13;;;;;;;16.83;15.73;;;5.20;99.90;;;;;;5016027;28;20202;-83
2023/12/06 12:25:46;;;;;;;16.37;15.27;;;5.10;99.90;;;;;;5026419;28;20194;-84
2023/12/06 12:28:16;;;;;;;15.40;14.40;;;5.20;99.90;;;;;;5013200;28;20227;-86
2023/12/06 12:30:46;;;;;;;15.53;14.53;;;5.10;99.90;;;;;;5012315;28;20222;-83
2023/12/06 12:33:40;;;;;;;16.20;15.20;;;5.10;99.90;;;;;;5006151;28;20224;-83
2023/12/06 12:40:19;;;;;;;16.07;14.97;;;5.10;99.90;;;;;;5037294;28;20229;-83
2023/12/06 12:43:21;;;;;;;15.10;14.20;;;5.10;99.90;;;;;;5017508;28;20202;-83
2023/12/06 12:45:48;;;;;;;16.20;15.20;;;5.10;99.90;;;;;;5025773;28;20207;-82
2023/12/06 12:53:45;;;;;;;15.93;14.83;;;5.10;99.90;;;;;;5006893;22;20236;-83
2023/12/06 13:01:19;;;;;;;17.30;16.10;;;5.10;99.90;;;;;;4966769;28;20227;-83
2023/12/06 13:03:51;;;;;;;16.50;15.50;;;5.10;99.90;;;;;;4975147;28;20698;-83
2023/12/06 13:06:20;;;;;;;15.80;14.80;;;5.10;99.90;;;;;;4982970;28;20203;-83
2023/12/06 13:08:47;;;;;;;16.57;15.37;;;5.10;99.90;;;;;;5030179;28;20225;-83
2023/12/06 13:11:14;;;;;;;16.37;15.27;;;5.10;99.90;;;;;;5019383;28;20225;-83
2023/12/06 13:13:41;;;;;;;16.17;15.07;;;5.10;99.90;;;;;;5023916;28;20215;-83
2023/12/06 13:16:08;;;;;;;16.80;15.47;;;5.10;99.90;;;;;;5018108;28;20210;-83
2023/12/06 13:18:37;;;;;;;16.27;15.17;;;5.10;99.90;;;;;;5012169;28;20305;-83
2023/12/06 13:21:09;;;;;;;16.40;15.30;;;5.00;99.90;;;;;;5026691;28;20203;-84
2023/12/06 13:23:36;;;;;;;16.50;15.47;;;5.00;99.90;;;;;;5012678;28;20633;-84
2023/12/06 13:26:03;;;;;;;16.30;15.20;;;5.00;99.90;;;;;;5027684;28;20196;-85
2023/12/06 13:28:29;;;;;;;16.57;15.47;;;5.10;99.90;;;;;;5022693;28;20653;-86
2023/12/06 13:30:57;;;;;;;17.17;15.97;;;5.00;99.90;;;;;;5048787;28;20196;-81
2023/12/06 13:33:27;;;;;;;16.80;15.73;;;5.10;99.90;;;;;;5023811;28;20224;-81
2023/12/06 13:35:57;;;;;;;16.70;15.60;;;5.10;99.90;;;;;;5035629;28;20204;-80
2023/12/06 13:38:32;;;;;;;16.13;15.03;;;5.10;99.90;;;;;;5015850;28;20222;-82
2023/12/06 13:41:06;;;;;;;15.87;14.77;;;5.10;99.90;;;;;;5005516;28;20230;-82
2023/12/06 13:43:42;;;;;;;15.50;14.50;;;5.00;99.90;;;;;;5033836;28;20284;-81
2023/12/06 13:46:12;;;;;;;16.30;15.20;;;5.00;99.90;;;;;;5036984;28;20229;-86
2023/12/06 13:48:41;;;;;;;16.13;15.03;;;5.00;99.90;;;;;;5021576;28;20226;-87
2023/12/06 13:51:12;;;;;;;16.60;15.50;;;5.00;99.90;;;;;;5015074;28;20205;-85
2023/12/06 13:53:40;;;;;;;16.10;15.00;;;5.00;99.90;;;;;;5016388;28;20218;-85
2023/12/06 13:56:09;;;;;;;16.87;15.67;;;5.00;99.90;;;;;;5016037;28;20205;-84
2023/12/06 13:58:44;;;;;;;16.67;15.47;;;5.00;99.90;;;;;;5019487;28;20322;-86
2023/12/06 14:01:11;;;;;;;17.90;16.70;;;4.90;99.90;;;;;;5020266;28;20204;-84
2023/12/06 14:03:42;;;;;;;18.47;17.17;;;4.90;99.90;;;;;;5021143;28;20209;-85
2023/12/06 14:06:10;;;;;;;17.40;16.20;;;4.90;99.90;;;;;;5023498;28;20202;-86
2023/12/06 14:08:37;;;;;;;17.03;15.83;;;4.90;99.90;;;;;;5022147;28;20320;-86
2023/12/06 14:11:05;;;;;;;17.17;15.97;;;4.80;99.90;;;;;;5025000;28;20206;-86
2023/12/06 14:13:33;;;;;;;18.23;16.83;;;4.80;99.90;;;;;;5012839;28;20213;-86
2023/12/06 14:16:00;;;;;;;17.23;16.00;;;4.80;99.90;;;;;;5013333;28;20197;-85
2023/12/06 14:18:27;;;;;;;16.63;15.43;;;4.70;99.90;;;;;;5030273;28;20213;-84
2023/12/06 14:20:54;;;;;;;16.70;15.60;;;4.70;99.90;;;;;;5029240;28;20201;-87
2023/12/06 14:23:22;;;;;;;17.57;16.13;;;4.70;99.90;;;;;;5027667;28;20207;-85
2023/12/06 14:25:49;;;;;;;16.97;15.80;;;4.70;99.90;;;;;;5024136;28;20663;-85
2023/12/06 14:28:21;;;;;;;17.23;16.03;;;4.70;99.90;;;;;;5035571;28;20228;-84
2023/12/06 14:30:48;;;;;;;16.50;15.37;;;4.70;99.90;;;;;;5021746;28;20223;-86
2023/12/06 14:33:18;;;;;;;18.07;16.57;;;4.70;99.90;;;;;;5007724;28;20209;-86
2023/12/06 14:35:48;;;;;;;16.97;15.73;;;4.70;99.90;;;;;;5025244;28;20255;-86
2023/12/06 14:38:15;;;;;;;17.20;16.00;;;4.70;99.90;;;;;;5031817;28;20217;-86
2023/12/06 14:40:43;;;;;;;17.73;16.43;;;4.70;99.90;;;;;;5025782;28;20270;-84
2023/12/06 14:43:10;;;;;;;18.00;16.70;;;4.70;99.90;;;;;;5026535;28;20267;-87
2023/12/06 14:45:41;;;;;;;16.60;15.50;;;4.70;99.90;;;;;;5020907;28;20211;-87
2023/12/06 14:48:08;;;;;;;17.93;16.63;;;4.60;99.90;;;;;;5029313;28;20321;-87
2023/12/06 14:50:35;;;;;;;18.33;17.03;;;4.60;99.90;;;;;;5018791;28;20271;-86
2023/12/06 14:53:02;;;;;;;17.20;16.00;;;4.60;99.90;;;;;;5016825;28;20227;-87
2023/12/06 14:55:29;;;;;;;18.30;17.00;;;4.60;99.90;;;;;;5016120;28;20256;-85
2023/12/06 14:57:56;;;;;;;18.53;17.13;;;4.60;99.90;;;;;;5007143;28;20206;-84
2023/12/06 15:00:23;;;;;;;18.60;17.20;;;4.60;99.90;;;;;;5025999;28;20264;-84
2023/12/06 15:02:52;;;;;;;19.03;17.53;;;4.60;99.90;;;;;;5020389;28;20366;-85
2023/12/06 15:05:19;;;;;;;18.93;17.63;;;4.60;99.90;;;;;;5017011;28;20216;-84
2023/12/06 15:07:47;;;;;;;18.10;16.60;;;4.50;99.90;;;;;;5014380;28;20294;-79
2023/12/06 15:10:14;;;;;;;17.03;15.83;;;4.50;99.90;;;;;;5026626;28;20203;-84
2023/12/06 15:12:41;;;;;;;17.60;16.40;;;4.50;99.90;;;;;;5004586;28;20249;-84
2023/12/06 15:15:08;;;;;;;17.67;16.37;;;4.50;99.90;;;;;;5023987;28;20209;-84
2023/12/06 15:17:35;;;;;;;17.90;16.63;;;4.40;99.90;;;;;;5015325;28;20682;-84
2023/12/06 15:20:07;;;;;;;18.27;16.90;;;4.40;99.90;;;;;;5016030;28;20231;-84
2023/12/06 15:22:35;;;;;;;18.10;16.70;;;4.50;99.90;;;;;;5023897;28;20658;-85
2023/12/06 15:25:02;;;;;;;17.83;16.43;;;4.40;99.90;;;;;;5018175;28;20732;-85
2023/12/06 15:27:29;;;;;;;19.47;18.03;;;4.40;99.90;;;;;;5014696;28;20247;-85
2023/12/06 15:29:56;;;;;;;17.60;16.40;;;4.40;99.90;;;;;;5017464;28;20325;-79
2023/12/06 15:32:23;;;;;;;18.40;17.10;;;4.40;99.90;;;;;;5013782;28;20255;-80
2023/12/06 15:34:51;;;;;;;17.63;16.33;;;4.40;99.90;;;;;;5036030;28;20200;-84
2023/12/06 15:37:19;;;;;;;18.10;16.80;;;4.40;99.90;;;;;;5013952;28;20209;-84
2023/12/06 15:39:46;;;;;;;20.03;18.43;;;4.40;99.90;;;;;;5016553;28;20617;-80
2023/12/06 15:42:13;;;;;;;17.93;16.63;;;4.40;99.90;;;;;;5015806;28;20201;-81
2023/12/06 15:44:40;;;;;;;18.33;16.93;;;4.40;99.90;;;;;;5014867;28;20262;-81
2023/12/06 15:47:06;;;;;;;17.90;16.63;;;4.40;99.90;;;;;;5018223;28;20206;-79
2023/12/06 15:49:33;;;;;;;18.57;17.20;;;4.30;99.90;;;;;;5026243;28;20229;-83
2023/12/06 15:52:00;;;;;;;18.57;17.27;;;4.30;99.90;;;;;;5021020;28;20193;-83
2023/12/06 15:54:28;;;;;;;17.67;16.43;;;4.30;99.90;;;;;;5016895;28;20206;-84
2023/12/06 15:56:55;;;;;;;18.53;17.13;;;4.30;99.90;;;;;;5016259;28;20231;-83
2023/12/06 15:59:22;;;;;;;18.53;17.23;;;4.30;99.90;;;;;;5011247;28;20220;-84
2023/12/06 16:01:48;;;;;;;18.73;17.33;;;4.30;99.90;;;;;;5012240;28;20202;-82
2023/12/06 16:04:15;;;;;;;18.00;16.70;;;4.30;99.90;;;;;;5012472;28;20196;-83
2023/12/06 16:06:42;;;;;;;18.63;17.23;;;4.30;99.90;;;;;;5016829;28;20208;-79
2023/12/06 16:09:09;;;;;;;18.43;17.03;;;4.30;99.90;;;;;;5017807;28;20632;-78
2023/12/06 16:11:37;;;;;;;18.63;17.20;;;4.30;99.90;;;;;;5048328;28;20232;-78
2023/12/06 16:14:04;;;;;;;19.23;17.73;;;4.30;99.90;;;;;;5029509;28;20644;-81
2023/12/06 16:16:31;;;;;;;18.93;17.43;;;4.30;99.90;;;;;;5009269;28;20753;-80
2023/12/06 16:18:58;;;;;;;19.37;17.77;;;4.20;99.90;;;;;;5011325;28;20221;-80
2023/12/06 16:21:25;;;;;;;18.80;17.30;;;4.30;99.90;;;;;;5029083;28;20204;-81
2023/12/06 16:23:51;;;;;;;17.13;15.90;;;4.30;99.90;;;;;;5017528;28;20192;-83
2023/12/06 16:26:18;;;;;;;19.20;17.80;;;4.30;99.90;;;;;;5032397;28;20227;-82
2023/12/06 16:28:46;;;;;;;17.97;16.47;;;4.30;99.90;;;;;;5015394;28;20232;-83
2023/12/06 16:31:15;;;;;;;17.70;16.40;;;4.20;99.90;;;;;;5030141;28;20211;-83
2023/12/06 16:33:43;;;;;;;17.90;16.50;;;4.20;99.90;;;;;;5018047;28;20233;-81
2023/12/06 16:36:16;;;;;;;47.67;23.87;;;4.20;99.90;;;;;;5016324;28;20261;-81
2023/12/06 16:38:43;;;;;;;26.70;19.77;;;4.20;99.90;;;;;;5013711;28;20238;-83
2023/12/06 16:41:10;;;;;;;18.87;16.97;;;4.20;99.90;;;;;;5009213;28;20225;-78
2023/12/06 16:43:37;;;;;;;18.17;16.70;;;4.20;99.90;;;;;;5044762;22;20250;-81
2023/12/06 16:46:05;;;;;;;18.83;17.40;;;4.10;99.90;;;;;;5026253;28;20232;-81
2023/12/06 16:48:32;;;;;;;19.37;17.77;;;4.20;99.90;;;;;;5027834;28;20200;-79
2023/12/06 16:50:59;;;;;;;18.40;17.03;;;4.20;99.90;;;;;;5055071;28;20276;-75
2023/12/06 16:53:25;;;;;;;20.43;18.83;;;4.20;99.90;;;;;;5029604;28;20256;-79
2023/12/06 16:55:58;;;;;;;19.53;18.03;;;4.20;99.90;;;;;;5024912;28;20205;-77
2023/12/06 16:58:28;;;;;;;19.27;17.63;;;4.20;99.90;;;;;;5008003;28;20595;-77
2023/12/06 17:00:55;;;;;;;19.20;17.70;;;4.20;99.90;;;;;;5012391;28;20205;-79
2023/12/06 17:03:23;;;;;;;19.60;18.20;;;4.20;99.90;;;;;;5032097;28;20255;-76
2023/12/06 17:05:49;;;;;;;19.10;17.70;;;4.20;99.90;;;;;;5032239;28;20723;-78
2023/12/06 17:08:16;;;;;;;18.03;16.63;;;4.20;99.90;;;;;;5030463;28;20204;-77
2023/12/06 17:10:43;;;;;;;20.20;18.70;;;4.20;99.90;;;;;;5037769;28;20640;-78
2023/12/06 17:13:12;;;;;;;18.93;17.40;;;4.20;99.90;;;;;;5014244;28;20287;-77
2023/12/06 17:15:39;;;;;;;19.43;18.03;;;4.20;99.90;;;;;;5013453;28;20273;-78
2023/12/06 17:18:12;;;;;;;18.00;16.57;;;4.20;99.90;;;;;;5014096;28;20211;-77
2023/12/06 17:20:40;;;;;;;19.20;17.70;;;4.10;99.90;;;;;;5029289;28;20255;-78
2023/12/06 17:23:07;;;;;;;19.87;18.30;;;4.20;99.90;;;;;;5034780;28;20200;-77
2023/12/06 17:25:34;;;;;;;19.53;17.93;;;4.10;99.90;;;;;;5034255;28;20240;-77
2023/12/06 17:28:01;;;;;;;20.73;19.13;;;4.20;99.90;;;;;;5035377;28;20196;-77
2023/12/06 17:30:28;;;;;;;22.83;20.90;;;4.20;99.90;;;;;;5018333;28;20209;-78
2023/12/06 17:32:55;;;;;;;23.33;21.37;;;4.20;99.90;;;;;;5009939;28;20308;-77
2023/12/06 17:35:21;;;;;;;22.73;20.83;;;4.20;99.90;;;;;;5016639;28;20268;-77
2023/12/06 17:37:51;;;;;;;21.23;19.40;;;4.10;99.90;;;;;;5016970;28;20205;-78
2023/12/06 17:40:18;;;;;;;20.27;18.73;;;4.20;99.90;;;;;;5034046;28;20214;-77
2023/12/06 17:42:44;;;;;;;20.30;18.80;;;4.10;99.90;;;;;;5042087;28;20224;-76
2023/12/06 17:45:11;;;;;;;22.73;20.67;;;4.20;99.90;;;;;;5023957;28;20231;-77
2023/12/06 17:47:38;;;;;;;19.63;18.17;;;4.20;99.90;;;;;;5044331;28;20654;-77
2023/12/06 17:50:06;;;;;;;20.03;18.37;;;4.10;99.90;;;;;;5018791;28;20232;-81
2023/12/06 17:52:33;;;;;;;19.40;17.83;;;4.10;99.90;;;;;;5017954;28;20280;-80
2023/12/06 17:55:01;;;;;;;19.87;18.20;;;4.10;99.90;;;;;;5035848;28;20575;-79
2023/12/06 17:57:28;;;;;;;18.83;17.33;;;4.10;99.90;;;;;;5039775;28;20202;-80
2023/12/06 17:59:55;;;;;;;17.90;16.60;;;4.10;99.90;;;;;;5033803;28;20197;-80
2023/12/06 18:02:23;;;;;;;18.23;16.83;;;4.10;99.90;;;;;;5017311;28;20193;-80
2023/12/06 18:04:49;;;;;;;16.87;15.67;;;4.10;99.90;;;;;;5016503;28;20597;-80
2023/12/06 18:07:16;;;;;;;15.87;14.77;;;4.10;99.90;;;;;;5016374;28;20205;-82
2023/12/06 18:09:43;;;;;;;16.33;15.23;;;4.00;99.90;;;;;;5016635;28;20202;-80
2023/12/06 18:12:11;;;;;;;16.00;14.90;;;3.90;99.90;;;;;;5034167;28;20192;-80
2023/12/06 18:14:38;;;;;;;16.50;15.30;;;3.90;99.90;;;;;;5035508;28;20220;-78
2023/12/06 18:17:04;;;;;;;15.50;14.40;;;3.90;99.90;;;;;;5015971;28;20239;-80
2023/12/06 18:19:31;;;;;;;15.60;14.60;;;3.80;99.90;;;;;;5016084;28;20208;-80
2023/12/06 18:21:59;;;;;;;16.03;14.93;;;3.80;99.90;;;;;;5035565;28;20224;-78
2023/12/06 18:24:26;;;;;;;16.20;15.10;;;3.80;99.90;;;;;;5016682;28;20252;-80
2023/12/06 18:26:53;;;;;;;17.53;16.13;;;3.80;99.90;;;;;;5008701;28;20196;-82
2023/12/06 18:29:21;;;;;;;16.90;15.70;;;3.70;99.90;;;;;;5014055;28;20209;-80
2023/12/06 18:31:48;;;;;;;17.37;16.10;;;3.70;99.90;;;;;;5015504;28;20676;-82
2023/12/06 18:34:15;;;;;;;18.63;17.20;;;3.70;99.90;;;;;;5033869;28;20223;-78
2023/12/06 18:36:42;;;;;;;17.90;16.60;;;3.70;99.90;;;;;;5034667;28;20191;-78
2023/12/06 18:39:09;;;;;;;17.97;16.60;;;3.70;99.90;;;;;;5015001;28;20266;-80
2023/12/06 18:41:36;;;;;;;16.23;15.13;;;3.70;99.90;;;;;;5016579;28;20199;-81
2023/12/06 18:44:05;;;;;;;18.43;17.03;;;3.70;99.90;;;;;;5033799;28;20224;-80
2023/12/06 18:46:33;;;;;;;17.63;16.33;;;3.60;99.90;;;;;;5007570;28;20259;-81
2023/12/06 18:49:00;;;;;;;18.07;16.87;;;3.70;99.90;;;;;;5012373;28;20250;-80
2023/12/06 18:51:27;;;;;;;18.10;16.70;;;3.70;99.90;;;;;;5007647;28;20204;-79
2023/12/06 18:53:54;;;;;;;17.47;16.27;;;3.70;99.90;;;;;;5034514;28;20239;-81
2023/12/06 18:56:22;;;;;;;18.23;16.73;;;3.60;99.90;;;;;;5034068;28;20201;-80
2023/12/06 18:58:49;;;;;;;18.67;17.27;;;3.60;99.90;;;;;;5018920;28;20202;-81
2023/12/06 19:01:16;;;;;;;18.43;17.03;;;3.60;99.90;;;;;;5009220;28;20211;-82
2023/12/06 19:03:45;;;;;;;18.10;16.77;;;3.60;99.90;;;;;;5020548;28;20220;-82
2023/12/06 19:06:12;;;;;;;18.03;16.67;;;3.60;99.90;;;;;;5016189;28;20205;-82
2023/12/06 19:08:38;;;;;;;20.40;18.77;;;3.60;99.90;;;;;;5008605;28;20248;-80
2023/12/06 19:11:06;;;;;;;20.10;18.60;;;3.60;99.90;;;;;;5018514;28;20254;-82
2023/12/06 19:13:33;;;;;;;21.23;19.47;;;3.60;99.90;;;;;;5036077;28;20231;-82
2023/12/06 19:16:02;;;;;;;21.90;20.10;;;3.60;99.90;;;;;;5014574;28;20603;-82
2023/12/06 19:18:29;;;;;;;19.57;18.13;;;3.60;99.90;;;;;;5010622;28;20196;-82
2023/12/06 19:20:57;;;;;;;20.10;18.50;;;3.60;99.90;;;;;;5015398;28;20623;-82
2023/12/06 19:23:24;;;;;;;19.80;18.27;;;3.60;99.90;;;;;;5018501;28;20195;-81
2023/12/06 19:25:51;;;;;;;23.33;21.27;;;3.60;99.90;;;;;;5016303;28;20201;-81
2023/12/06 19:28:18;;;;;;;20.20;18.60;;;3.60;99.90;;;;;;5012498;28;20204;-80
2023/12/06 19:30:45;;;;;;;22.50;20.43;;;3.60;99.90;;;;;;5012585;28;20236;-81
2023/12/06 19:33:15;;;;;;;20.60;19.00;;;3.60;99.90;;;;;;5037205;28;20251;-81